createdAt,value
2022-08-28T00:00:30.116Z,2.00
2022-08-28T00:02:57.534Z,1.97
2022-08-28T00:05:27.038Z,1.80
2022-08-28T00:07:53.967Z,2.37
2022-08-28T00:10:22.422Z,1.87
2022-08-28T00:12:50.470Z,1.67
2022-08-28T00:15:24.157Z,1.80
2022-08-28T00:17:51.440Z,2.00
2022-08-28T00:20:20.963Z,1.63
2022-08-28T00:22:48.793Z,2.47
2022-08-28T00:25:16.767Z,1.90
2022-08-28T00:27:55.514Z,2.20
2022-08-28T00:30:30.953Z,1.70
2022-08-28T00:33:04.867Z,2.00
2022-08-28T00:35:31.878Z,1.93
2022-08-28T00:37:58.636Z,2.10
2022-08-28T00:40:28.649Z,1.73
2022-08-28T00:42:58.550Z,1.97
2022-08-28T00:45:25.727Z,1.90
2022-08-28T00:47:52.797Z,1.80
2022-08-28T00:50:21.885Z,1.97
2022-08-28T00:52:50.661Z,1.80
2022-08-28T00:55:20.674Z,1.70
2022-08-28T00:57:50.490Z,1.90
2022-08-28T01:00:23.797Z,2.40
2022-08-28T01:02:51.532Z,1.73
2022-08-28T01:05:18.693Z,1.93
2022-08-28T01:07:46.467Z,2.00
2022-08-28T01:10:18.473Z,2.03
2022-08-28T01:12:46.027Z,1.90
2022-08-28T01:15:17.478Z,1.87
2022-08-28T01:17:51.455Z,1.97
2022-08-28T01:20:22.076Z,1.93
2022-08-28T01:22:51.584Z,1.63
2022-08-28T01:25:20.577Z,1.90
2022-08-28T01:27:47.421Z,1.80
2022-08-28T01:30:16.835Z,1.80
2022-08-28T01:32:47.357Z,1.83
2022-08-28T01:35:18.392Z,1.77
2022-08-28T01:37:45.854Z,2.07
2022-08-28T01:40:17.707Z,1.77
2022-08-28T01:42:45.206Z,1.70
2022-08-28T01:45:16.084Z,2.00
2022-08-28T01:47:44.385Z,2.07
2022-08-28T01:50:14.502Z,2.10
2022-08-28T01:52:41.772Z,2.03
2022-08-28T01:55:10.035Z,1.70
2022-08-28T01:57:43.419Z,1.67
2022-08-28T02:00:11.303Z,1.93
2022-08-28T02:02:38.674Z,1.70
2022-08-28T02:05:05.838Z,1.93
2022-08-28T02:07:32.720Z,1.70
2022-08-28T02:09:59.510Z,2.13
2022-08-28T02:12:26.236Z,1.93
2022-08-28T02:14:55.113Z,1.67
2022-08-28T02:17:21.917Z,1.93
2022-08-28T02:19:48.631Z,1.97
2022-08-28T02:22:15.313Z,1.90
2022-08-28T02:24:42.176Z,1.77
2022-08-28T02:27:09.245Z,1.97
2022-08-28T02:29:35.979Z,2.40
2022-08-28T02:32:05.901Z,1.87
2022-08-28T02:34:34.284Z,2.27
2022-08-28T02:37:01.036Z,1.80
2022-08-28T02:39:28.182Z,2.33
2022-08-28T02:41:54.912Z,2.23
2022-08-28T02:44:21.656Z,1.60
2022-08-28T02:46:48.420Z,1.87
2022-08-28T02:49:15.131Z,2.60
2022-08-28T02:51:42.393Z,2.83
2022-08-28T02:54:09.223Z,2.40
2022-08-28T02:56:35.993Z,2.13
2022-08-28T02:59:02.763Z,2.80
2022-08-28T03:01:29.591Z,2.30
2022-08-28T03:03:56.418Z,2.70
2022-08-28T03:06:23.183Z,2.20
2022-08-28T03:08:50.068Z,2.80
2022-08-28T03:11:17.013Z,2.23
2022-08-28T03:13:43.753Z,2.97
2022-08-28T03:16:10.934Z,2.90
2022-08-28T03:18:38.219Z,2.90
2022-08-28T03:21:05.286Z,2.50
2022-08-28T03:23:32.115Z,2.80
2022-08-28T03:26:09.059Z,2.70
2022-08-28T03:28:41.969Z,3.13
2022-08-28T03:31:10.510Z,2.83
2022-08-28T03:33:38.263Z,3.00
2022-08-28T03:36:11.683Z,2.77
2022-08-28T03:38:38.503Z,2.97
2022-08-28T03:41:13.543Z,3.17
2022-08-28T03:43:40.895Z,3.27
2022-08-28T03:46:09.172Z,3.10
2022-08-28T03:48:37.673Z,3.40
2022-08-28T03:51:16.118Z,3.27
2022-08-28T03:53:45.283Z,3.13
2022-08-28T03:56:17.165Z,3.00
2022-08-28T03:58:44.201Z,3.10
2022-08-28T04:01:11.039Z,3.30
2022-08-28T04:03:37.862Z,3.37
2022-08-28T04:06:04.802Z,3.37
2022-08-28T04:08:31.674Z,3.50
2022-08-28T04:10:59.621Z,3.37
2022-08-28T04:13:27.304Z,3.17
2022-08-28T04:16:02.951Z,3.20
2022-08-28T04:18:33.685Z,3.10
2022-08-28T04:21:06.399Z,3.83
2022-08-28T04:23:33.351Z,3.97
2022-08-28T04:26:00.372Z,3.40
2022-08-28T04:28:27.720Z,3.40
2022-08-28T04:30:55.160Z,4.47
2022-08-28T04:33:22.963Z,3.17
2022-08-28T04:35:49.879Z,3.67
2022-08-28T04:38:16.925Z,3.80
2022-08-28T04:40:43.738Z,3.40
2022-08-28T04:43:11.169Z,3.10
2022-08-28T04:45:47.054Z,3.63
2022-08-28T04:48:14.427Z,3.47
2022-08-28T04:50:43.134Z,3.40
2022-08-28T04:53:10.894Z,3.17
2022-08-28T04:55:54.489Z,4.30
2022-08-28T04:58:24.113Z,3.33
2022-08-28T05:00:53.090Z,3.47
2022-08-28T05:03:20.393Z,3.33
2022-08-28T05:05:49.691Z,3.63
2022-08-28T05:08:18.283Z,3.57
2022-08-28T05:10:47.068Z,3.20
2022-08-28T05:13:18.522Z,2.90
2022-08-28T05:15:48.434Z,3.27
2022-08-28T05:18:16.359Z,3.60
2022-08-28T05:20:46.722Z,3.33
2022-08-28T05:23:14.791Z,2.90
2022-08-28T05:25:44.451Z,3.57
2022-08-28T05:28:12.635Z,3.43
2022-08-28T05:30:40.646Z,3.20
2022-08-28T05:33:08.301Z,3.47
2022-08-28T05:35:36.117Z,2.97
2022-08-28T05:38:02.839Z,3.27
2022-08-28T05:40:29.686Z,3.20
2022-08-28T05:42:56.666Z,3.40
2022-08-28T05:45:23.818Z,3.33
2022-08-28T05:47:52.019Z,3.67
2022-08-28T05:50:21.278Z,3.47
2022-08-28T05:52:48.042Z,3.57
2022-08-28T05:55:14.982Z,3.47
2022-08-28T05:57:41.760Z,3.27
2022-08-28T06:00:12.949Z,2.93
2022-08-28T06:02:40.819Z,3.30
2022-08-28T06:05:08.639Z,3.17
2022-08-28T06:07:39.991Z,3.00
2022-08-28T06:10:07.657Z,3.20
2022-08-28T06:12:37.820Z,3.43
2022-08-28T06:15:06.150Z,3.13
2022-08-28T06:17:32.885Z,2.93
2022-08-28T06:19:59.634Z,3.23
2022-08-28T06:22:26.290Z,3.07
2022-08-28T06:24:53.988Z,3.70
2022-08-28T06:27:22.457Z,3.13
2022-08-28T06:29:52.238Z,3.20
2022-08-28T06:32:19.195Z,3.23
2022-08-28T06:34:46.135Z,2.83
2022-08-28T06:37:13.081Z,2.87
2022-08-28T06:39:40.077Z,2.50
2022-08-28T06:42:07.177Z,2.60
2022-08-28T06:44:33.976Z,3.20
2022-08-28T06:47:00.732Z,3.20
2022-08-28T06:49:27.471Z,2.80
2022-08-28T06:51:55.897Z,2.97
2022-08-28T06:54:23.665Z,2.77
2022-08-28T06:56:51.868Z,2.93
2022-08-28T06:59:18.819Z,2.80
2022-08-28T07:01:45.826Z,2.47
2022-08-28T07:04:14.716Z,2.60
2022-08-28T07:06:47.140Z,2.67
2022-08-28T07:09:15.374Z,2.80
2022-08-28T07:11:46.810Z,2.80
2022-08-28T07:14:13.757Z,2.73
2022-08-28T07:16:40.687Z,3.10
2022-08-28T07:19:10.559Z,2.60
2022-08-28T07:21:39.654Z,2.77
2022-08-28T07:24:07.907Z,2.40
2022-08-28T07:26:36.001Z,2.53
2022-08-28T07:29:10.465Z,2.30
2022-08-28T07:31:40.922Z,2.57
2022-08-28T07:34:09.591Z,2.70
2022-08-28T07:36:36.770Z,2.47
2022-08-28T07:39:05.242Z,2.73
2022-08-28T07:41:33.810Z,2.70
2022-08-28T07:44:19.184Z,2.50
2022-08-28T07:46:46.136Z,2.50
2022-08-28T07:49:17.916Z,3.27
2022-08-28T07:51:46.660Z,2.90
2022-08-28T07:54:17.603Z,2.40
2022-08-28T07:56:46.024Z,2.43
2022-08-28T07:59:16.896Z,2.37
2022-08-28T08:01:46.745Z,2.60
2022-08-28T08:04:18.099Z,2.27
2022-08-28T08:06:45.508Z,2.40
2022-08-28T08:09:15.346Z,2.97
2022-08-28T08:11:44.800Z,2.73
2022-08-28T08:14:12.517Z,2.47
2022-08-28T08:16:41.577Z,2.23
2022-08-28T08:19:10.119Z,2.47
2022-08-28T08:21:37.666Z,2.27
2022-08-28T08:24:05.147Z,2.33
2022-08-28T08:26:32.391Z,3.07
2022-08-28T08:29:00.201Z,2.20
2022-08-28T08:31:32.614Z,2.23
2022-08-28T08:34:02.547Z,2.50
2022-08-28T08:36:30.992Z,2.40
2022-08-28T08:39:00.389Z,2.07
2022-08-28T08:41:48.050Z,2.23
2022-08-28T08:44:34.066Z,1.87
2022-08-28T08:47:15.514Z,2.27
2022-08-28T08:49:49.327Z,2.43
2022-08-28T08:52:25.257Z,2.50
2022-08-28T08:55:06.669Z,2.00
2022-08-28T08:57:35.189Z,2.17
2022-08-28T09:00:04.836Z,2.40
2022-08-28T09:02:36.923Z,2.70
2022-08-28T09:05:12.649Z,2.13
2022-08-28T09:07:58.891Z,2.30
2022-08-28T09:10:36.053Z,2.20
2022-08-28T09:13:05.805Z,2.20
2022-08-28T09:15:36.669Z,2.20
2022-08-28T09:18:14.067Z,1.70
2022-08-28T09:20:42.121Z,2.17
2022-08-28T09:23:12.891Z,2.20
2022-08-28T09:25:57.198Z,2.20
2022-08-28T09:28:34.294Z,1.73
2022-08-28T09:31:21.910Z,1.93
2022-08-28T09:33:51.395Z,2.03
2022-08-28T09:36:27.418Z,1.73
2022-08-28T09:39:22.416Z,1.90
2022-08-28T09:42:32.388Z,1.80
2022-08-28T09:45:01.038Z,1.97
2022-08-28T09:47:46.074Z,2.53
2022-08-28T09:50:32.591Z,2.27
2022-08-28T09:53:20.744Z,2.17
2022-08-28T09:55:53.480Z,2.20
2022-08-28T09:58:21.162Z,1.80
2022-08-28T10:01:10.694Z,2.30
2022-08-28T10:03:46.966Z,1.80
2022-08-28T10:06:35.372Z,1.87
2022-08-28T10:09:08.314Z,1.80
2022-08-28T10:12:21.320Z,2.07
2022-08-28T10:15:06.199Z,2.20
2022-08-28T10:17:53.764Z,2.03
2022-08-28T10:20:28.920Z,1.87
2022-08-28T10:23:04.762Z,1.93
2022-08-28T10:25:41.193Z,1.87
2022-08-28T10:28:20.218Z,1.90
2022-08-28T10:31:00.344Z,1.87
2022-08-28T10:34:07.096Z,1.80
2022-08-28T10:36:35.472Z,2.07
2022-08-28T10:39:18.283Z,2.10
2022-08-28T10:41:49.207Z,2.13
2022-08-28T10:44:21.496Z,2.07
2022-08-28T10:46:55.603Z,1.80
2022-08-28T10:49:30.341Z,1.63
2022-08-28T10:52:00.137Z,2.27
2022-08-28T10:54:41.174Z,1.53
2022-08-28T10:57:31.155Z,1.97
2022-08-28T10:59:59.687Z,1.70
2022-08-28T11:02:27.313Z,1.70
2022-08-28T11:04:58.540Z,2.03
2022-08-28T11:07:39.016Z,2.00
2022-08-28T11:10:41.224Z,1.60
2022-08-28T11:13:10.236Z,1.80
2022-08-28T11:15:38.946Z,1.97
2022-08-28T11:18:35.124Z,2.03
2022-08-28T11:21:24.872Z,1.87
2022-08-28T11:24:07.236Z,1.83
2022-08-28T11:26:41.654Z,1.90
2022-08-28T11:29:08.553Z,1.73
2022-08-28T11:31:38.147Z,1.50
2022-08-28T11:34:06.313Z,1.63
2022-08-28T11:36:33.055Z,2.20
2022-08-28T11:39:05.109Z,1.63
2022-08-28T11:41:33.527Z,2.00
2022-08-28T11:44:09.599Z,1.40
2022-08-28T11:46:41.935Z,1.80
2022-08-28T11:49:23.846Z,1.50
2022-08-28T11:51:54.763Z,2.33
2022-08-28T11:55:06.056Z,1.77
2022-08-28T12:00:33.529Z,1.60
2022-08-28T12:03:14.818Z,1.70
2022-08-28T12:05:47.421Z,1.53
2022-08-28T12:08:48.904Z,1.70
2022-08-28T12:11:40.577Z,1.53
2022-08-28T12:14:14.272Z,1.57
2022-08-28T12:16:59.127Z,1.40
2022-08-28T12:19:55.468Z,1.57
2022-08-28T12:22:26.414Z,1.53
2022-08-28T12:25:05.909Z,1.50
2022-08-28T12:27:37.057Z,1.73
2022-08-28T12:30:04.505Z,1.40
2022-08-28T12:32:34.821Z,1.70
2022-08-28T12:35:02.211Z,1.77
2022-08-28T12:37:51.382Z,1.50
2022-08-28T12:40:22.717Z,1.60
2022-08-28T12:43:01.065Z,1.53
2022-08-28T12:45:41.349Z,1.47
2022-08-28T12:48:18.179Z,1.67
2022-08-28T12:50:45.051Z,1.40
2022-08-28T12:53:17.795Z,1.30
2022-08-28T12:55:45.963Z,1.47
2022-08-28T12:58:26.873Z,1.40
2022-08-28T13:00:57.322Z,1.57
2022-08-28T13:03:24.502Z,1.50
2022-08-28T13:06:06.754Z,1.40
2022-08-28T13:08:34.283Z,1.70
2022-08-28T13:11:02.240Z,1.43
2022-08-28T13:13:40.050Z,1.70
2022-08-28T13:16:10.709Z,1.50
2022-08-28T13:19:05.415Z,1.57
2022-08-28T13:21:37.304Z,1.10
2022-08-28T13:24:22.939Z,1.63
2022-08-28T13:26:51.682Z,1.10
2022-08-28T13:29:21.915Z,1.30
2022-08-28T13:32:01.132Z,1.30
2022-08-28T13:34:30.898Z,1.37
2022-08-28T13:37:00.629Z,1.30
2022-08-28T13:39:29.973Z,1.30
2022-08-28T13:41:59.650Z,1.40
2022-08-28T13:44:37.953Z,1.20
2022-08-28T13:47:09.185Z,1.30
2022-08-28T13:49:39.006Z,1.50
2022-08-28T13:52:07.485Z,1.40
2022-08-28T13:54:37.018Z,1.67
2022-08-28T13:57:07.538Z,1.60
2022-08-28T13:59:34.931Z,1.33
2022-08-28T14:02:24.824Z,1.33
2022-08-28T14:04:51.627Z,1.40
2022-08-28T14:07:18.632Z,1.60
2022-08-28T14:09:46.065Z,1.40
2022-08-28T14:12:13.727Z,1.13
2022-08-28T14:14:40.537Z,1.20
2022-08-28T14:17:08.658Z,1.20
2022-08-28T14:19:35.905Z,1.10
2022-08-28T14:22:03.867Z,1.30
2022-08-28T14:24:30.976Z,1.20
2022-08-28T14:26:58.475Z,1.20
2022-08-28T14:29:25.307Z,1.30
2022-08-28T14:31:52.541Z,1.23
2022-08-28T14:34:22.413Z,1.10
2022-08-28T14:36:55.406Z,1.33
2022-08-28T14:39:23.591Z,1.60
2022-08-28T14:41:51.709Z,1.40
2022-08-28T14:44:19.276Z,1.10
2022-08-28T14:46:47.454Z,1.50
2022-08-28T14:49:16.599Z,1.30
2022-08-28T14:51:45.119Z,1.20
2022-08-28T14:54:13.306Z,1.70
2022-08-28T14:56:42.118Z,1.17
2022-08-28T14:59:14.950Z,1.20
2022-08-28T15:01:43.729Z,1.30
2022-08-28T15:04:13.144Z,1.07
2022-08-28T15:06:42.429Z,1.70
2022-08-28T15:09:13.544Z,1.47
2022-08-28T15:11:41.105Z,1.30
2022-08-28T15:14:08.869Z,1.27
2022-08-28T15:16:39.850Z,1.00
2022-08-28T15:19:07.318Z,1.30
2022-08-28T15:21:40.556Z,1.60
2022-08-28T15:24:08.161Z,1.80
2022-08-28T15:26:34.860Z,1.33
2022-08-28T15:29:04.523Z,1.23
2022-08-28T15:31:34.699Z,1.13
2022-08-28T15:34:06.567Z,1.20
2022-08-28T15:36:40.411Z,1.10
2022-08-28T15:39:26.245Z,1.00
2022-08-28T15:41:53.113Z,1.10
2022-08-28T15:44:19.978Z,1.57
2022-08-28T15:46:53.508Z,1.37
2022-08-28T15:49:21.042Z,1.90
2022-08-28T15:51:51.053Z,1.20
2022-08-28T15:54:18.095Z,1.33
2022-08-28T15:56:45.305Z,1.33
2022-08-28T15:59:13.846Z,1.40
2022-08-28T16:01:40.868Z,1.10
2022-08-28T16:04:08.034Z,1.40
2022-08-28T16:06:36.104Z,1.20
2022-08-28T16:09:05.038Z,2.50
2022-08-28T16:11:33.709Z,1.00
2022-08-28T16:14:00.803Z,1.00
2022-08-28T16:16:27.622Z,1.23
2022-08-28T16:18:55.342Z,1.20
2022-08-28T16:21:23.472Z,1.23
2022-08-28T16:23:54.241Z,1.00
2022-08-28T16:26:21.073Z,1.10
2022-08-28T16:28:47.946Z,1.30
2022-08-28T16:31:19.415Z,1.10
2022-08-28T16:33:49.028Z,1.30
2022-08-28T16:36:17.428Z,1.00
2022-08-28T16:38:46.717Z,1.33
2022-08-28T16:41:17.283Z,1.13
2022-08-28T16:43:44.364Z,0.97
2022-08-28T16:46:17.418Z,0.97
2022-08-28T16:48:45.119Z,0.87
2022-08-28T16:51:12.533Z,1.37
2022-08-28T16:53:42.484Z,1.00
2022-08-28T16:56:11.053Z,1.30
2022-08-28T16:58:39.909Z,1.17
2022-08-28T17:01:08.245Z,1.50
2022-08-28T17:03:40.807Z,1.10
2022-08-28T17:06:14.300Z,1.43
2022-08-28T17:08:41.158Z,1.30
2022-08-28T17:11:09.375Z,1.00
2022-08-28T17:13:36.958Z,1.10
2022-08-28T17:16:04.864Z,1.10
2022-08-28T17:18:31.995Z,1.37
2022-08-28T17:21:17.444Z,1.23
2022-08-28T17:23:44.593Z,0.93
2022-08-28T17:26:11.489Z,1.20
2022-08-28T17:28:38.501Z,1.10
2022-08-28T17:31:05.489Z,1.33
2022-08-28T17:33:32.939Z,1.53
2022-08-28T17:36:00.000Z,1.10
2022-08-28T17:38:27.366Z,1.17
2022-08-28T17:40:54.253Z,1.20
2022-08-28T17:43:21.206Z,1.20
2022-08-28T17:45:48.476Z,1.10
2022-08-28T17:48:17.067Z,1.13
2022-08-28T17:50:46.213Z,1.10
2022-08-28T17:53:13.487Z,1.33
2022-08-28T17:55:43.247Z,1.03
2022-08-28T17:58:10.759Z,1.40
2022-08-28T18:00:40.039Z,1.40
2022-08-28T18:03:07.695Z,1.33
2022-08-28T18:05:37.494Z,1.17
2022-08-28T18:08:05.298Z,1.10
2022-08-28T18:10:35.077Z,1.30
2022-08-28T18:13:03.670Z,1.40
2022-08-28T18:15:30.662Z,1.27
2022-08-28T18:17:58.049Z,1.10
2022-08-28T18:20:25.494Z,1.00
2022-08-28T18:22:52.621Z,1.13
2022-08-28T18:25:38.503Z,1.13
2022-08-28T18:28:08.267Z,1.23
2022-08-28T18:30:36.145Z,1.33
2022-08-28T18:33:04.606Z,1.07
2022-08-28T18:35:32.309Z,1.03
2022-08-28T18:37:59.565Z,1.47
2022-08-28T18:40:27.346Z,1.13
2022-08-28T18:42:55.387Z,1.10
2022-08-28T18:45:22.610Z,1.40
2022-08-28T18:47:49.323Z,1.30
2022-08-28T18:50:16.171Z,1.20
2022-08-28T18:52:42.972Z,1.40
2022-08-28T18:55:10.806Z,1.13
2022-08-28T18:57:37.605Z,1.17
2022-08-28T19:00:05.802Z,1.30
2022-08-28T19:02:34.113Z,1.20
2022-08-28T19:05:03.043Z,1.27
2022-08-28T19:07:29.820Z,1.30
2022-08-28T19:09:57.405Z,1.20
2022-08-28T19:12:25.175Z,1.23
2022-08-28T19:14:55.971Z,1.10
2022-08-28T19:17:22.780Z,1.40
2022-08-28T19:19:50.510Z,1.10
2022-08-28T19:22:17.978Z,1.60
2022-08-28T19:24:44.765Z,1.17
2022-08-28T19:27:11.591Z,1.43
2022-08-28T19:29:38.751Z,1.20
2022-08-28T19:32:06.458Z,1.13
2022-08-28T19:34:33.778Z,1.43
2022-08-28T19:37:01.076Z,1.13
2022-08-28T19:39:28.701Z,1.53
2022-08-28T19:41:55.519Z,1.67
2022-08-28T19:44:22.201Z,1.30
2022-08-28T19:46:48.949Z,1.40
2022-08-28T19:49:15.709Z,1.30
2022-08-28T19:51:43.205Z,1.67
2022-08-28T19:54:14.280Z,1.10
2022-08-28T19:56:41.281Z,1.20
2022-08-28T19:59:09.170Z,1.17
2022-08-28T20:01:39.159Z,1.30
2022-08-28T20:04:07.651Z,1.50
2022-08-28T20:06:35.755Z,1.50
2022-08-28T20:09:04.535Z,1.40
2022-08-28T20:11:31.485Z,1.40
2022-08-28T20:14:04.329Z,1.53
2022-08-28T20:16:35.829Z,1.30
2022-08-28T20:19:04.293Z,1.40
2022-08-28T20:21:37.738Z,1.40
2022-08-28T20:24:14.792Z,1.47
2022-08-28T20:26:41.720Z,1.53
2022-08-28T20:29:09.896Z,1.60
2022-08-28T20:31:46.286Z,1.43
2022-08-28T20:34:14.666Z,1.20
2022-08-28T20:36:41.500Z,1.43
2022-08-28T20:39:09.472Z,1.60
2022-08-28T20:41:38.108Z,1.63
2022-08-28T20:44:09.877Z,1.60
2022-08-28T20:46:40.804Z,1.50
2022-08-28T20:49:12.529Z,1.60
2022-08-28T20:52:01.268Z,1.70
2022-08-28T20:54:39.758Z,1.60
2022-08-28T20:57:10.674Z,1.40
2022-08-28T20:59:40.625Z,1.70
2022-08-28T21:02:13.553Z,1.20
2022-08-28T21:04:42.118Z,1.50
2022-08-28T21:07:10.486Z,1.37
2022-08-28T21:10:06.261Z,1.57
2022-08-28T21:12:24.589Z,1.30
2022-08-28T21:14:52.833Z,1.43
2022-08-28T21:17:28.719Z,1.50
2022-08-28T21:20:00.962Z,1.50
2022-08-28T21:22:29.961Z,1.70
2022-08-28T21:25:01.101Z,1.57
2022-08-28T21:27:28.148Z,1.70
2022-08-28T21:29:58.050Z,1.40
2022-08-28T21:32:27.071Z,1.83
2022-08-28T21:34:55.926Z,1.37
2022-08-28T21:37:23.535Z,1.60
2022-08-28T21:39:50.921Z,1.60
2022-08-28T21:42:23.242Z,1.50
2022-08-28T21:44:51.937Z,1.57
2022-08-28T21:47:24.556Z,1.50
2022-08-28T21:49:53.064Z,1.37
2022-08-28T21:52:28.661Z,1.50
2022-08-28T21:55:05.245Z,1.40
2022-08-28T21:57:32.531Z,1.50
2022-08-28T21:59:59.659Z,1.60
2022-08-28T22:02:26.840Z,1.67
2022-08-28T22:04:53.867Z,1.40
2022-08-28T22:07:20.604Z,1.73
2022-08-28T22:09:50.845Z,1.73
2022-08-28T22:12:17.756Z,1.40
2022-08-28T22:14:44.527Z,1.53
2022-08-28T22:17:11.771Z,1.83
2022-08-28T22:19:39.277Z,1.80
2022-08-28T22:22:24.537Z,1.80
2022-08-28T22:24:51.514Z,1.70
2022-08-28T22:27:18.276Z,2.10
2022-08-28T22:29:45.036Z,1.60
2022-08-28T22:32:12.128Z,2.10
2022-08-28T22:34:45.187Z,1.30
2022-08-28T22:37:12.527Z,1.60
2022-08-28T22:39:40.198Z,1.50
2022-08-28T22:42:08.358Z,1.53
2022-08-28T22:44:35.212Z,1.67
2022-08-28T22:47:02.357Z,1.73
2022-08-28T22:49:29.208Z,1.70
2022-08-28T22:51:59.474Z,1.77
2022-08-28T22:54:27.347Z,1.87
2022-08-28T22:56:54.339Z,1.80
2022-08-28T22:59:22.192Z,1.43
2022-08-28T23:01:49.007Z,1.30
2022-08-28T23:04:16.222Z,1.63
2022-08-28T23:06:43.010Z,1.60
2022-08-28T23:09:09.974Z,1.93
2022-08-28T23:11:37.349Z,1.40
2022-08-28T23:14:05.675Z,1.40
2022-08-28T23:16:33.561Z,1.80
2022-08-28T23:19:08.819Z,1.43
2022-08-28T23:21:42.695Z,1.47
2022-08-28T23:24:10.297Z,1.37
2022-08-28T23:26:36.962Z,1.70
2022-08-28T23:29:03.835Z,1.43
2022-08-28T23:31:30.688Z,1.73
2022-08-28T23:33:58.257Z,1.50
2022-08-28T23:36:25.447Z,1.50
2022-08-28T23:38:52.307Z,1.27
2022-08-28T23:41:19.431Z,1.23
2022-08-28T23:43:47.254Z,1.60
2022-08-28T23:46:16.300Z,1.60
2022-08-28T23:48:43.391Z,1.47
2022-08-28T23:51:13.234Z,1.70
2022-08-28T23:53:42.422Z,1.83
2022-08-28T23:56:09.508Z,1.47
2022-08-28T23:58:36.480Z,1.40
